sensor_id;sensor_type;location;lat;lon;timestamp;P1;durP1;ratioP1;P2;durP2;ratioP2
40150;SDS011;25866;52.420;10.640;2023-05-31T00:02:24;8.27;;;3.15;;
40150;SDS011;25866;52.420;10.640;2023-05-31T00:04:50;5.95;;;2.58;;
40150;SDS011;25866;52.420;10.640;2023-05-31T00:07:16;9.77;;;3.30;;
40150;SDS011;25866;52.420;10.640;2023-05-31T00:09:41;10.40;;;3.00;;
40150;SDS011;25866;52.420;10.640;2023-05-31T00:12:07;8.25;;;3.00;;
40150;SDS011;25866;52.420;10.640;2023-05-31T00:14:33;6.60;;;2.75;;
40150;SDS011;25866;52.420;10.640;2023-05-31T00:16:59;7.28;;;2.78;;
40150;SDS011;25866;52.420;10.640;2023-05-31T00:19:24;11.23;;;3.08;;
40150;SDS011;25866;52.420;10.640;2023-05-31T00:21:50;7.13;;;2.70;;
40150;SDS011;25866;52.420;10.640;2023-05-31T00:24:16;9.98;;;3.17;;
40150;SDS011;25866;52.420;10.640;2023-05-31T00:26:42;7.97;;;2.90;;
40150;SDS011;25866;52.420;10.640;2023-05-31T00:29:07;7.90;;;3.30;;
40150;SDS011;25866;52.420;10.640;2023-05-31T00:31:33;7.00;;;2.92;;
40150;SDS011;25866;52.420;10.640;2023-05-31T00:33:59;8.00;;;2.83;;
40150;SDS011;25866;52.420;10.640;2023-05-31T00:36:25;9.15;;;3.30;;
40150;SDS011;25866;52.420;10.640;2023-05-31T00:38:50;10.73;;;3.10;;
40150;SDS011;25866;52.420;10.640;2023-05-31T00:41:16;6.85;;;3.03;;
40150;SDS011;25866;52.420;10.640;2023-05-31T00:43:42;9.07;;;3.92;;
40150;SDS011;25866;52.420;10.640;2023-05-31T00:46:13;4.53;;;2.78;;
40150;SDS011;25866;52.420;10.640;2023-05-31T00:48:52;8.63;;;2.85;;
40150;SDS011;25866;52.420;10.640;2023-05-31T00:51:19;6.20;;;3.08;;
40150;SDS011;25866;52.420;10.640;2023-05-31T00:53:45;13.77;;;3.33;;
40150;SDS011;25866;52.420;10.640;2023-05-31T00:56:12;9.55;;;3.33;;
40150;SDS011;25866;52.420;10.640;2023-05-31T00:58:39;10.15;;;3.45;;
40150;SDS011;25866;52.420;10.640;2023-05-31T01:01:06;4.57;;;2.80;;
40150;SDS011;25866;52.420;10.640;2023-05-31T01:03:33;7.30;;;3.63;;
40150;SDS011;25866;52.420;10.640;2023-05-31T01:05:59;7.57;;;3.38;;
40150;SDS011;25866;52.420;10.640;2023-05-31T01:08:26;8.68;;;3.35;;
40150;SDS011;25866;52.420;10.640;2023-05-31T01:10:52;8.48;;;3.67;;
40150;SDS011;25866;52.420;10.640;2023-05-31T01:13:27;8.90;;;3.08;;
40150;SDS011;25866;52.420;10.640;2023-05-31T01:16:21;5.18;;;3.20;;
40150;SDS011;25866;52.420;10.640;2023-05-31T01:19:00;8.00;;;2.92;;
40150;SDS011;25866;52.420;10.640;2023-05-31T01:25:26;5.88;;;2.95;;
40150;SDS011;25866;52.420;10.640;2023-05-31T01:27:43;8.82;;;3.35;;
40150;SDS011;25866;52.420;10.640;2023-05-31T01:30:11;7.18;;;3.63;;
40150;SDS011;25866;52.420;10.640;2023-05-31T01:32:39;6.95;;;3.42;;
40150;SDS011;25866;52.420;10.640;2023-05-31T01:35:06;9.32;;;3.22;;
40150;SDS011;25866;52.420;10.640;2023-05-31T01:37:32;11.23;;;3.58;;
40150;SDS011;25866;52.420;10.640;2023-05-31T01:39:58;6.03;;;3.00;;
40150;SDS011;25866;52.420;10.640;2023-05-31T01:42:24;8.43;;;3.10;;
40150;SDS011;25866;52.420;10.640;2023-05-31T01:44:50;5.78;;;3.17;;
40150;SDS011;25866;52.420;10.640;2023-05-31T01:47:16;5.60;;;2.95;;
40150;SDS011;25866;52.420;10.640;2023-05-31T01:49:43;9.05;;;3.25;;
40150;SDS011;25866;52.420;10.640;2023-05-31T01:52:13;5.70;;;3.03;;
40150;SDS011;25866;52.420;10.640;2023-05-31T01:54:42;7.05;;;3.65;;
40150;SDS011;25866;52.420;10.640;2023-05-31T01:57:07;5.85;;;3.50;;
40150;SDS011;25866;52.420;10.640;2023-05-31T01:59:34;10.73;;;3.47;;
40150;SDS011;25866;52.420;10.640;2023-05-31T02:02:03;9.25;;;3.47;;
40150;SDS011;25866;52.420;10.640;2023-05-31T02:04:30;7.20;;;3.70;;
40150;SDS011;25866;52.420;10.640;2023-05-31T02:06:56;8.55;;;4.07;;
40150;SDS011;25866;52.420;10.640;2023-05-31T02:09:23;6.82;;;3.55;;
40150;SDS011;25866;52.420;10.640;2023-05-31T02:11:49;6.63;;;3.55;;
40150;SDS011;25866;52.420;10.640;2023-05-31T02:14:15;10.60;;;4.18;;
40150;SDS011;25866;52.420;10.640;2023-05-31T02:16:41;8.90;;;3.58;;
40150;SDS011;25866;52.420;10.640;2023-05-31T02:19:06;8.95;;;3.60;;
40150;SDS011;25866;52.420;10.640;2023-05-31T02:21:33;7.80;;;3.45;;
40150;SDS011;25866;52.420;10.640;2023-05-31T02:24:02;8.27;;;3.80;;
40150;SDS011;25866;52.420;10.640;2023-05-31T02:26:27;6.30;;;3.42;;
40150;SDS011;25866;52.420;10.640;2023-05-31T02:28:53;8.25;;;3.50;;
40150;SDS011;25866;52.420;10.640;2023-05-31T02:31:19;8.32;;;4.32;;
40150;SDS011;25866;52.420;10.640;2023-05-31T02:33:45;13.95;;;4.75;;
40150;SDS011;25866;52.420;10.640;2023-05-31T02:36:12;11.07;;;4.30;;
40150;SDS011;25866;52.420;10.640;2023-05-31T02:38:38;8.82;;;4.35;;
40150;SDS011;25866;52.420;10.640;2023-05-31T02:41:04;5.93;;;3.47;;
40150;SDS011;25866;52.420;10.640;2023-05-31T02:43:31;9.95;;;3.83;;
40150;SDS011;25866;52.420;10.640;2023-05-31T02:45:57;12.23;;;4.32;;
40150;SDS011;25866;52.420;10.640;2023-05-31T02:48:26;7.20;;;4.00;;
40150;SDS011;25866;52.420;10.640;2023-05-31T02:50:55;8.68;;;3.78;;
40150;SDS011;25866;52.420;10.640;2023-05-31T02:55:51;11.82;;;4.75;;
40150;SDS011;25866;52.420;10.640;2023-05-31T02:58:17;9.27;;;4.78;;
40150;SDS011;25866;52.420;10.640;2023-05-31T03:00:43;7.32;;;4.13;;
40150;SDS011;25866;52.420;10.640;2023-05-31T03:03:11;7.93;;;4.10;;
40150;SDS011;25866;52.420;10.640;2023-05-31T03:05:37;10.48;;;4.60;;
40150;SDS011;25866;52.420;10.640;2023-05-31T03:08:03;7.32;;;4.32;;
40150;SDS011;25866;52.420;10.640;2023-05-31T03:10:29;6.18;;;3.83;;
40150;SDS011;25866;52.420;10.640;2023-05-31T03:12:56;10.60;;;4.10;;
40150;SDS011;25866;52.420;10.640;2023-05-31T03:15:22;8.98;;;4.57;;
40150;SDS011;25866;52.420;10.640;2023-05-31T03:17:49;6.05;;;3.97;;
40150;SDS011;25866;52.420;10.640;2023-05-31T03:20:14;8.35;;;4.10;;
40150;SDS011;25866;52.420;10.640;2023-05-31T03:22:49;7.57;;;4.40;;
40150;SDS011;25866;52.420;10.640;2023-05-31T03:25:15;9.80;;;3.85;;
40150;SDS011;25866;52.420;10.640;2023-05-31T03:27:41;4.95;;;3.55;;
40150;SDS011;25866;52.420;10.640;2023-05-31T03:30:06;9.32;;;4.20;;
40150;SDS011;25866;52.420;10.640;2023-05-31T03:32:32;8.18;;;4.03;;
40150;SDS011;25866;52.420;10.640;2023-05-31T03:34:58;7.25;;;3.75;;
40150;SDS011;25866;52.420;10.640;2023-05-31T03:37:24;8.07;;;4.55;;
40150;SDS011;25866;52.420;10.640;2023-05-31T03:39:50;7.35;;;4.45;;
40150;SDS011;25866;52.420;10.640;2023-05-31T03:42:18;6.38;;;4.30;;
40150;SDS011;25866;52.420;10.640;2023-05-31T03:44:43;6.15;;;3.90;;
40150;SDS011;25866;52.420;10.640;2023-05-31T03:47:09;8.63;;;4.15;;
40150;SDS011;25866;52.420;10.640;2023-05-31T03:49:36;8.25;;;4.10;;
40150;SDS011;25866;52.420;10.640;2023-05-31T03:52:03;7.38;;;4.10;;
40150;SDS011;25866;52.420;10.640;2023-05-31T03:54:29;8.98;;;3.95;;
40150;SDS011;25866;52.420;10.640;2023-05-31T03:56:55;7.50;;;4.50;;
40150;SDS011;25866;52.420;10.640;2023-05-31T03:59:21;11.02;;;4.53;;
40150;SDS011;25866;52.420;10.640;2023-05-31T04:01:47;6.45;;;4.30;;
40150;SDS011;25866;52.420;10.640;2023-05-31T04:04:18;7.38;;;3.65;;
40150;SDS011;25866;52.420;10.640;2023-05-31T04:06:44;8.93;;;3.75;;
40150;SDS011;25866;52.420;10.640;2023-05-31T04:09:10;7.68;;;4.63;;
40150;SDS011;25866;52.420;10.640;2023-05-31T04:11:36;9.60;;;4.55;;
40150;SDS011;25866;52.420;10.640;2023-05-31T04:14:01;9.57;;;4.30;;
40150;SDS011;25866;52.420;10.640;2023-05-31T04:16:27;8.10;;;4.43;;
40150;SDS011;25866;52.420;10.640;2023-05-31T04:18:52;8.15;;;4.63;;
40150;SDS011;25866;52.420;10.640;2023-05-31T04:21:19;8.45;;;4.25;;
40150;SDS011;25866;52.420;10.640;2023-05-31T04:26:14;9.43;;;4.82;;
40150;SDS011;25866;52.420;10.640;2023-05-31T04:28:42;9.35;;;4.78;;
40150;SDS011;25866;52.420;10.640;2023-05-31T04:31:08;9.65;;;4.68;;
40150;SDS011;25866;52.420;10.640;2023-05-31T04:33:35;8.88;;;4.97;;
40150;SDS011;25866;52.420;10.640;2023-05-31T04:36:01;8.75;;;4.60;;
40150;SDS011;25866;52.420;10.640;2023-05-31T04:38:28;9.65;;;4.85;;
40150;SDS011;25866;52.420;10.640;2023-05-31T04:40:57;6.13;;;4.47;;
40150;SDS011;25866;52.420;10.640;2023-05-31T04:43:26;10.50;;;4.57;;
40150;SDS011;25866;52.420;10.640;2023-05-31T04:45:52;7.07;;;4.40;;
40150;SDS011;25866;52.420;10.640;2023-05-31T04:48:18;9.98;;;4.30;;
40150;SDS011;25866;52.420;10.640;2023-05-31T04:50:45;9.27;;;4.60;;
40150;SDS011;25866;52.420;10.640;2023-05-31T04:53:15;8.20;;;4.78;;
40150;SDS011;25866;52.420;10.640;2023-05-31T04:55:40;10.05;;;5.22;;
40150;SDS011;25866;52.420;10.640;2023-05-31T04:58:06;8.88;;;4.78;;
40150;SDS011;25866;52.420;10.640;2023-05-31T05:00:33;11.18;;;4.93;;
40150;SDS011;25866;52.420;10.640;2023-05-31T05:03:07;12.45;;;5.00;;
40150;SDS011;25866;52.420;10.640;2023-05-31T05:05:33;10.73;;;5.10;;
40150;SDS011;25866;52.420;10.640;2023-05-31T05:07:58;7.97;;;4.55;;
40150;SDS011;25866;52.420;10.640;2023-05-31T05:10:24;8.25;;;4.70;;
40150;SDS011;25866;52.420;10.640;2023-05-31T05:12:52;7.68;;;4.13;;
40150;SDS011;25866;52.420;10.640;2023-05-31T05:15:17;10.73;;;4.85;;
40150;SDS011;25866;52.420;10.640;2023-05-31T05:17:43;10.77;;;4.65;;
40150;SDS011;25866;52.420;10.640;2023-05-31T05:20:10;11.93;;;4.55;;
40150;SDS011;25866;52.420;10.640;2023-05-31T05:22:36;9.52;;;4.65;;
40150;SDS011;25866;52.420;10.640;2023-05-31T05:25:02;5.90;;;3.90;;
40150;SDS011;25866;52.420;10.640;2023-05-31T05:27:28;7.30;;;4.03;;
40150;SDS011;25866;52.420;10.640;2023-05-31T05:29:54;11.27;;;4.57;;
40150;SDS011;25866;52.420;10.640;2023-05-31T05:32:20;6.47;;;3.90;;
40150;SDS011;25866;52.420;10.640;2023-05-31T05:34:46;5.32;;;3.40;;
40150;SDS011;25866;52.420;10.640;2023-05-31T05:37:12;8.43;;;3.83;;
40150;SDS011;25866;52.420;10.640;2023-05-31T05:39:38;8.48;;;3.13;;
40150;SDS011;25866;52.420;10.640;2023-05-31T05:42:04;6.15;;;3.35;;
40150;SDS011;25866;52.420;10.640;2023-05-31T05:44:33;7.88;;;3.50;;
40150;SDS011;25866;52.420;10.640;2023-05-31T05:46:58;8.15;;;3.50;;
40150;SDS011;25866;52.420;10.640;2023-05-31T05:49:24;6.38;;;3.33;;
40150;SDS011;25866;52.420;10.640;2023-05-31T05:51:50;7.07;;;3.42;;
40150;SDS011;25866;52.420;10.640;2023-05-31T05:54:18;4.90;;;2.90;;
40150;SDS011;25866;52.420;10.640;2023-05-31T05:56:44;5.93;;;3.03;;
40150;SDS011;25866;52.420;10.640;2023-05-31T05:59:10;9.52;;;3.50;;
40150;SDS011;25866;52.420;10.640;2023-05-31T06:01:35;9.13;;;3.03;;
40150;SDS011;25866;52.420;10.640;2023-05-31T06:04:04;9.13;;;3.63;;
40150;SDS011;25866;52.420;10.640;2023-05-31T06:06:30;12.13;;;3.80;;
40150;SDS011;25866;52.420;10.640;2023-05-31T06:08:57;8.65;;;3.70;;
40150;SDS011;25866;52.420;10.640;2023-05-31T06:11:22;6.95;;;3.05;;
40150;SDS011;25866;52.420;10.640;2023-05-31T06:13:50;9.55;;;3.25;;
40150;SDS011;25866;52.420;10.640;2023-05-31T06:16:21;9.95;;;3.20;;
40150;SDS011;25866;52.420;10.640;2023-05-31T06:18:48;5.82;;;3.13;;
40150;SDS011;25866;52.420;10.640;2023-05-31T06:21:14;7.45;;;2.92;;
40150;SDS011;25866;52.420;10.640;2023-05-31T06:23:40;7.88;;;2.53;;
40150;SDS011;25866;52.420;10.640;2023-05-31T06:26:06;5.25;;;2.75;;
40150;SDS011;25866;52.420;10.640;2023-05-31T06:28:31;6.82;;;2.60;;
40150;SDS011;25866;52.420;10.640;2023-05-31T06:30:57;7.38;;;3.28;;
40150;SDS011;25866;52.420;10.640;2023-05-31T06:33:25;6.47;;;2.90;;
40150;SDS011;25866;52.420;10.640;2023-05-31T06:35:51;8.25;;;2.60;;
40150;SDS011;25866;52.420;10.640;2023-05-31T06:38:17;6.53;;;3.42;;
40150;SDS011;25866;52.420;10.640;2023-05-31T06:40:43;6.75;;;2.67;;
40150;SDS011;25866;52.420;10.640;2023-05-31T06:43:09;4.65;;;2.83;;
40150;SDS011;25866;52.420;10.640;2023-05-31T06:45:36;5.90;;;2.42;;
40150;SDS011;25866;52.420;10.640;2023-05-31T06:48:08;7.35;;;3.90;;
40150;SDS011;25866;52.420;10.640;2023-05-31T06:50:34;10.77;;;6.50;;
40150;SDS011;25866;52.420;10.640;2023-05-31T06:53:00;6.50;;;4.13;;
40150;SDS011;25866;52.420;10.640;2023-05-31T06:55:26;12.73;;;9.63;;
40150;SDS011;25866;52.420;10.640;2023-05-31T06:57:51;5.13;;;2.50;;
40150;SDS011;25866;52.420;10.640;2023-05-31T07:00:17;7.60;;;3.20;;
40150;SDS011;25866;52.420;10.640;2023-05-31T07:02:44;5.63;;;2.35;;
40150;SDS011;25866;52.420;10.640;2023-05-31T07:07:40;5.15;;;2.38;;
40150;SDS011;25866;52.420;10.640;2023-05-31T07:10:06;4.65;;;2.58;;
40150;SDS011;25866;52.420;10.640;2023-05-31T07:12:32;7.47;;;3.05;;
40150;SDS011;25866;52.420;10.640;2023-05-31T07:14:59;18.35;;;11.63;;
40150;SDS011;25866;52.420;10.640;2023-05-31T07:17:25;7.20;;;2.50;;
40150;SDS011;25866;52.420;10.640;2023-05-31T07:19:50;7.10;;;2.13;;
40150;SDS011;25866;52.420;10.640;2023-05-31T07:22:16;13.15;;;6.15;;
40150;SDS011;25866;52.420;10.640;2023-05-31T07:27:13;4.95;;;1.58;;
40150;SDS011;25866;52.420;10.640;2023-05-31T07:29:39;4.60;;;2.10;;
40150;SDS011;25866;52.420;10.640;2023-05-31T07:32:05;5.28;;;2.00;;
40150;SDS011;25866;52.420;10.640;2023-05-31T07:34:33;6.65;;;2.03;;
40150;SDS011;25866;52.420;10.640;2023-05-31T07:36:59;4.57;;;2.78;;
40150;SDS011;25866;52.420;10.640;2023-05-31T07:39:25;8.55;;;2.33;;
40150;SDS011;25866;52.420;10.640;2023-05-31T07:41:51;3.03;;;1.70;;
40150;SDS011;25866;52.420;10.640;2023-05-31T07:44:17;5.38;;;1.70;;
40150;SDS011;25866;52.420;10.640;2023-05-31T07:46:43;4.72;;;1.40;;
40150;SDS011;25866;52.420;10.640;2023-05-31T07:49:09;4.90;;;1.95;;
40150;SDS011;25866;52.420;10.640;2023-05-31T07:51:35;3.83;;;1.42;;
40150;SDS011;25866;52.420;10.640;2023-05-31T07:54:01;4.60;;;1.73;;
40150;SDS011;25866;52.420;10.640;2023-05-31T07:56:28;5.22;;;1.90;;
40150;SDS011;25866;52.420;10.640;2023-05-31T07:58:53;5.93;;;1.70;;
40150;SDS011;25866;52.420;10.640;2023-05-31T08:01:19;4.20;;;1.90;;
40150;SDS011;25866;52.420;10.640;2023-05-31T08:03:45;3.88;;;1.95;;
40150;SDS011;25866;52.420;10.640;2023-05-31T08:06:11;5.38;;;2.08;;
40150;SDS011;25866;52.420;10.640;2023-05-31T08:08:37;3.40;;;1.92;;
40150;SDS011;25866;52.420;10.640;2023-05-31T08:11:03;2.78;;;1.70;;
40150;SDS011;25866;52.420;10.640;2023-05-31T08:13:28;4.00;;;1.95;;
40150;SDS011;25866;52.420;10.640;2023-05-31T08:15:56;5.22;;;1.88;;
40150;SDS011;25866;52.420;10.640;2023-05-31T08:18:22;3.40;;;1.48;;
40150;SDS011;25866;52.420;10.640;2023-05-31T08:20:48;5.18;;;2.17;;
40150;SDS011;25866;52.420;10.640;2023-05-31T08:23:17;3.58;;;1.70;;
40150;SDS011;25866;52.420;10.640;2023-05-31T08:25:43;4.63;;;1.48;;
40150;SDS011;25866;52.420;10.640;2023-05-31T08:28:09;5.15;;;1.80;;
40150;SDS011;25866;52.420;10.640;2023-05-31T08:30:35;3.33;;;1.65;;
40150;SDS011;25866;52.420;10.640;2023-05-31T08:33:01;2.60;;;1.42;;
40150;SDS011;25866;52.420;10.640;2023-05-31T08:35:28;6.00;;;1.58;;
40150;SDS011;25866;52.420;10.640;2023-05-31T08:37:53;4.25;;;1.40;;
40150;SDS011;25866;52.420;10.640;2023-05-31T08:40:20;3.85;;;1.38;;
40150;SDS011;25866;52.420;10.640;2023-05-31T08:42:55;8.25;;;1.63;;
40150;SDS011;25866;52.420;10.640;2023-05-31T08:45:28;6.63;;;1.67;;
40150;SDS011;25866;52.420;10.640;2023-05-31T08:50:48;4.88;;;1.38;;
40150;SDS011;25866;52.420;10.640;2023-05-31T08:53:15;3.00;;;1.63;;
40150;SDS011;25866;52.420;10.640;2023-05-31T08:55:44;3.88;;;1.30;;
40150;SDS011;25866;52.420;10.640;2023-05-31T08:58:13;3.65;;;1.60;;
40150;SDS011;25866;52.420;10.640;2023-05-31T09:00:42;5.95;;;1.60;;
40150;SDS011;25866;52.420;10.640;2023-05-31T09:03:13;5.63;;;1.58;;
40150;SDS011;25866;52.420;10.640;2023-05-31T09:05:40;3.28;;;1.42;;
40150;SDS011;25866;52.420;10.640;2023-05-31T09:08:06;3.78;;;1.45;;
40150;SDS011;25866;52.420;10.640;2023-05-31T09:10:32;5.13;;;1.70;;
40150;SDS011;25866;52.420;10.640;2023-05-31T09:12:58;8.60;;;1.70;;
40150;SDS011;25866;52.420;10.640;2023-05-31T09:15:33;2.22;;;1.33;;
40150;SDS011;25866;52.420;10.640;2023-05-31T09:18:35;4.97;;;1.70;;
40150;SDS011;25866;52.420;10.640;2023-05-31T09:21:01;3.88;;;1.60;;
40150;SDS011;25866;52.420;10.640;2023-05-31T09:23:33;3.90;;;1.42;;
40150;SDS011;25866;52.420;10.640;2023-05-31T09:26:00;2.53;;;1.50;;
40150;SDS011;25866;52.420;10.640;2023-05-31T09:28:29;2.97;;;1.60;;
40150;SDS011;25866;52.420;10.640;2023-05-31T09:31:04;3.35;;;1.55;;
40150;SDS011;25866;52.420;10.640;2023-05-31T09:33:38;3.95;;;1.35;;
40150;SDS011;25866;52.420;10.640;2023-05-31T09:36:14;2.97;;;1.30;;
40150;SDS011;25866;52.420;10.640;2023-05-31T09:39:03;4.30;;;1.73;;
40150;SDS011;25866;52.420;10.640;2023-05-31T09:41:30;3.63;;;1.50;;
40150;SDS011;25866;52.420;10.640;2023-05-31T09:43:57;5.40;;;1.70;;
40150;SDS011;25866;52.420;10.640;2023-05-31T09:46:24;3.63;;;1.45;;
40150;SDS011;25866;52.420;10.640;2023-05-31T09:49:01;3.78;;;1.50;;
40150;SDS011;25866;52.420;10.640;2023-05-31T09:51:31;3.35;;;1.50;;
40150;SDS011;25866;52.420;10.640;2023-05-31T09:54:01;3.35;;;1.42;;
40150;SDS011;25866;52.420;10.640;2023-05-31T09:56:38;3.42;;;1.60;;
40150;SDS011;25866;52.420;10.640;2023-05-31T09:59:06;4.00;;;1.42;;
40150;SDS011;25866;52.420;10.640;2023-05-31T10:01:32;6.28;;;1.42;;
40150;SDS011;25866;52.420;10.640;2023-05-31T10:04:01;5.93;;;1.35;;
40150;SDS011;25866;52.420;10.640;2023-05-31T10:06:33;5.53;;;1.73;;
40150;SDS011;25866;52.420;10.640;2023-05-31T10:09:03;2.50;;;1.35;;
40150;SDS011;25866;52.420;10.640;2023-05-31T10:11:33;4.68;;;1.58;;
40150;SDS011;25866;52.420;10.640;2023-05-31T10:14:23;3.05;;;1.60;;
40150;SDS011;25866;52.420;10.640;2023-05-31T10:16:56;4.07;;;1.73;;
40150;SDS011;25866;52.420;10.640;2023-05-31T10:19:32;4.07;;;1.60;;
40150;SDS011;25866;52.420;10.640;2023-05-31T10:22:05;4.32;;;1.70;;
40150;SDS011;25866;52.420;10.640;2023-05-31T10:24:37;3.67;;;1.60;;
40150;SDS011;25866;52.420;10.640;2023-05-31T10:29:45;3.85;;;1.30;;
40150;SDS011;25866;52.420;10.640;2023-05-31T10:32:19;3.10;;;1.50;;
40150;SDS011;25866;52.420;10.640;2023-05-31T10:34:46;4.68;;;1.50;;
40150;SDS011;25866;52.420;10.640;2023-05-31T10:37:14;2.90;;;1.42;;
40150;SDS011;25866;52.420;10.640;2023-05-31T10:42:36;2.25;;;1.08;;
40150;SDS011;25866;52.420;10.640;2023-05-31T10:51:00;3.35;;;1.40;;
40150;SDS011;25866;52.420;10.640;2023-05-31T10:53:30;1.98;;;1.20;;
40150;SDS011;25866;52.420;10.640;2023-05-31T10:56:01;5.22;;;1.45;;
40150;SDS011;25866;52.420;10.640;2023-05-31T10:58:41;3.97;;;1.48;;
40150;SDS011;25866;52.420;10.640;2023-05-31T11:01:12;3.55;;;1.30;;
40150;SDS011;25866;52.420;10.640;2023-05-31T11:03:46;4.25;;;1.30;;
40150;SDS011;25866;52.420;10.640;2023-05-31T11:06:15;2.47;;;1.17;;
40150;SDS011;25866;52.420;10.640;2023-05-31T11:16:31;3.22;;;1.17;;
40150;SDS011;25866;52.420;10.640;2023-05-31T11:19:17;2.15;;;1.08;;
40150;SDS011;25866;52.420;10.640;2023-05-31T11:24:28;2.75;;;1.38;;
40150;SDS011;25866;52.420;10.640;2023-05-31T11:27:23;2.70;;;1.20;;
40150;SDS011;25866;52.420;10.640;2023-05-31T11:30:13;2.38;;;1.45;;
40150;SDS011;25866;52.420;10.640;2023-05-31T11:35:10;2.08;;;1.15;;
40150;SDS011;25866;52.420;10.640;2023-05-31T11:37:41;1.90;;;1.05;;
40150;SDS011;25866;52.420;10.640;2023-05-31T11:40:12;1.92;;;1.30;;
40150;SDS011;25866;52.420;10.640;2023-05-31T11:42:39;2.22;;;1.25;;
40150;SDS011;25866;52.420;10.640;2023-05-31T11:45:07;1.60;;;1.05;;
40150;SDS011;25866;52.420;10.640;2023-05-31T11:50:43;3.85;;;1.40;;
40150;SDS011;25866;52.420;10.640;2023-05-31T11:53:09;1.80;;;1.10;;
40150;SDS011;25866;52.420;10.640;2023-05-31T11:55:36;2.50;;;1.10;;
40150;SDS011;25866;52.420;10.640;2023-05-31T11:58:07;2.60;;;1.30;;
40150;SDS011;25866;52.420;10.640;2023-05-31T12:00:34;3.78;;;1.20;;
40150;SDS011;25866;52.420;10.640;2023-05-31T12:02:59;3.97;;;1.55;;
40150;SDS011;25866;52.420;10.640;2023-05-31T12:05:29;3.00;;;1.20;;
40150;SDS011;25866;52.420;10.640;2023-05-31T12:07:57;4.95;;;1.15;;
40150;SDS011;25866;52.420;10.640;2023-05-31T12:10:26;2.80;;;1.30;;
40150;SDS011;25866;52.420;10.640;2023-05-31T12:12:52;3.67;;;1.45;;
40150;SDS011;25866;52.420;10.640;2023-05-31T12:15:18;2.47;;;1.40;;
40150;SDS011;25866;52.420;10.640;2023-05-31T12:17:44;3.10;;;1.60;;
40150;SDS011;25866;52.420;10.640;2023-05-31T12:20:10;2.40;;;1.27;;
40150;SDS011;25866;52.420;10.640;2023-05-31T12:22:37;2.35;;;1.33;;
40150;SDS011;25866;52.420;10.640;2023-05-31T12:25:03;2.17;;;1.30;;
40150;SDS011;25866;52.420;10.640;2023-05-31T12:27:31;3.08;;;1.15;;
40150;SDS011;25866;52.420;10.640;2023-05-31T12:29:57;3.92;;;1.30;;
40150;SDS011;25866;52.420;10.640;2023-05-31T12:32:23;4.50;;;1.20;;
40150;SDS011;25866;52.420;10.640;2023-05-31T12:35:05;3.00;;;1.20;;
40150;SDS011;25866;52.420;10.640;2023-05-31T12:37:48;3.63;;;1.35;;
40150;SDS011;25866;52.420;10.640;2023-05-31T12:40:16;3.45;;;1.20;;
40150;SDS011;25866;52.420;10.640;2023-05-31T12:42:45;2.63;;;1.45;;
40150;SDS011;25866;52.420;10.640;2023-05-31T12:45:11;3.38;;;1.17;;
40150;SDS011;25866;52.420;10.640;2023-05-31T12:47:37;2.65;;;1.40;;
40150;SDS011;25866;52.420;10.640;2023-05-31T12:50:04;1.55;;;1.00;;
40150;SDS011;25866;52.420;10.640;2023-05-31T12:52:36;1.88;;;1.00;;
40150;SDS011;25866;52.420;10.640;2023-05-31T12:55:06;2.63;;;1.02;;
40150;SDS011;25866;52.420;10.640;2023-05-31T12:57:32;3.20;;;1.08;;
40150;SDS011;25866;52.420;10.640;2023-05-31T13:00:03;2.45;;;1.00;;
40150;SDS011;25866;52.420;10.640;2023-05-31T13:02:34;1.83;;;1.10;;
40150;SDS011;25866;52.420;10.640;2023-05-31T13:05:01;2.85;;;0.90;;
40150;SDS011;25866;52.420;10.640;2023-05-31T13:07:27;1.58;;;1.00;;
40150;SDS011;25866;52.420;10.640;2023-05-31T13:09:53;1.52;;;1.25;;
40150;SDS011;25866;52.420;10.640;2023-05-31T13:12:19;1.90;;;0.95;;
40150;SDS011;25866;52.420;10.640;2023-05-31T13:14:46;2.80;;;1.05;;
40150;SDS011;25866;52.420;10.640;2023-05-31T13:17:12;1.80;;;0.85;;
40150;SDS011;25866;52.420;10.640;2023-05-31T13:19:38;1.13;;;0.77;;
40150;SDS011;25866;52.420;10.640;2023-05-31T13:22:04;1.90;;;0.75;;
40150;SDS011;25866;52.420;10.640;2023-05-31T13:24:30;1.35;;;1.00;;
40150;SDS011;25866;52.420;10.640;2023-05-31T13:26:55;2.60;;;1.10;;
40150;SDS011;25866;52.420;10.640;2023-05-31T13:29:23;2.05;;;0.90;;
40150;SDS011;25866;52.420;10.640;2023-05-31T13:31:50;3.72;;;1.10;;
40150;SDS011;25866;52.420;10.640;2023-05-31T13:34:16;1.50;;;1.10;;
40150;SDS011;25866;52.420;10.640;2023-05-31T13:36:43;2.63;;;1.08;;
40150;SDS011;25866;52.420;10.640;2023-05-31T13:39:16;2.97;;;1.17;;
40150;SDS011;25866;52.420;10.640;2023-05-31T13:41:42;2.05;;;1.10;;
40150;SDS011;25866;52.420;10.640;2023-05-31T13:44:09;2.60;;;1.35;;
40150;SDS011;25866;52.420;10.640;2023-05-31T13:46:42;2.67;;;1.10;;
40150;SDS011;25866;52.420;10.640;2023-05-31T13:49:17;1.70;;;1.05;;
40150;SDS011;25866;52.420;10.640;2023-05-31T13:51:45;1.83;;;0.98;;
40150;SDS011;25866;52.420;10.640;2023-05-31T13:54:10;2.92;;;1.00;;
40150;SDS011;25866;52.420;10.640;2023-05-31T13:56:36;2.70;;;1.08;;
40150;SDS011;25866;52.420;10.640;2023-05-31T13:59:03;4.32;;;1.10;;
40150;SDS011;25866;52.420;10.640;2023-05-31T14:01:29;1.75;;;0.90;;
40150;SDS011;25866;52.420;10.640;2023-05-31T14:03:54;2.75;;;1.08;;
40150;SDS011;25866;52.420;10.640;2023-05-31T14:06:20;2.33;;;1.20;;
40150;SDS011;25866;52.420;10.640;2023-05-31T14:08:46;1.75;;;1.20;;
40150;SDS011;25866;52.420;10.640;2023-05-31T14:11:12;1.67;;;1.13;;
40150;SDS011;25866;52.420;10.640;2023-05-31T14:13:39;2.92;;;1.30;;
40150;SDS011;25866;52.420;10.640;2023-05-31T14:16:04;3.03;;;1.20;;
40150;SDS011;25866;52.420;10.640;2023-05-31T14:18:30;2.63;;;1.10;;
40150;SDS011;25866;52.420;10.640;2023-05-31T14:20:56;5.32;;;1.17;;
40150;SDS011;25866;52.420;10.640;2023-05-31T14:23:21;3.35;;;1.13;;
40150;SDS011;25866;52.420;10.640;2023-05-31T14:25:47;3.95;;;1.15;;
40150;SDS011;25866;52.420;10.640;2023-05-31T14:28:13;3.55;;;1.10;;
40150;SDS011;25866;52.420;10.640;2023-05-31T14:30:45;2.50;;;1.23;;
40150;SDS011;25866;52.420;10.640;2023-05-31T14:33:11;1.77;;;1.15;;
40150;SDS011;25866;52.420;10.640;2023-05-31T14:35:36;4.10;;;1.13;;
40150;SDS011;25866;52.420;10.640;2023-05-31T14:38:02;3.53;;;1.13;;
40150;SDS011;25866;52.420;10.640;2023-05-31T14:40:28;2.55;;;1.35;;
40150;SDS011;25866;52.420;10.640;2023-05-31T14:42:53;3.35;;;1.05;;
40150;SDS011;25866;52.420;10.640;2023-05-31T14:45:20;4.00;;;1.30;;
40150;SDS011;25866;52.420;10.640;2023-05-31T14:47:46;2.75;;;1.20;;
40150;SDS011;25866;52.420;10.640;2023-05-31T14:50:11;1.30;;;0.90;;
40150;SDS011;25866;52.420;10.640;2023-05-31T14:52:37;2.40;;;1.17;;
40150;SDS011;25866;52.420;10.640;2023-05-31T14:55:03;2.75;;;1.10;;
40150;SDS011;25866;52.420;10.640;2023-05-31T14:57:29;5.03;;;1.00;;
40150;SDS011;25866;52.420;10.640;2023-05-31T14:59:55;2.30;;;1.20;;
40150;SDS011;25866;52.420;10.640;2023-05-31T15:02:20;3.80;;;1.20;;
40150;SDS011;25866;52.420;10.640;2023-05-31T15:04:46;1.98;;;0.90;;
40150;SDS011;25866;52.420;10.640;2023-05-31T15:07:12;1.52;;;0.85;;
40150;SDS011;25866;52.420;10.640;2023-05-31T15:09:38;3.13;;;1.02;;
40150;SDS011;25866;52.420;10.640;2023-05-31T15:12:04;2.47;;;0.95;;
40150;SDS011;25866;52.420;10.640;2023-05-31T15:14:31;2.10;;;0.98;;
40150;SDS011;25866;52.420;10.640;2023-05-31T15:16:57;2.97;;;1.10;;
40150;SDS011;25866;52.420;10.640;2023-05-31T15:19:23;2.78;;;0.90;;
40150;SDS011;25866;52.420;10.640;2023-05-31T15:21:51;2.88;;;0.95;;